createdAt,value
2019-03-11T00:00:19.038Z,5.50
2019-03-11T00:02:47.313Z,5.40
2019-03-11T00:05:15.754Z,5.40
2019-03-11T00:07:44.500Z,5.40
2019-03-11T00:10:13.254Z,5.40
2019-03-11T00:12:41.677Z,5.30
2019-03-11T00:15:09.957Z,5.30
2019-03-11T00:17:38.635Z,5.30
2019-03-11T00:20:08.821Z,5.30
2019-03-11T00:22:37.490Z,5.40
2019-03-11T00:25:06.706Z,5.40
2019-03-11T00:27:35.058Z,5.40
2019-03-11T00:30:05.850Z,5.40
2019-03-11T00:32:35.824Z,5.40
2019-03-11T00:35:06.100Z,5.40
2019-03-11T00:37:34.788Z,5.30
2019-03-11T00:40:03.458Z,5.30
2019-03-11T00:42:31.745Z,5.30
2019-03-11T00:45:00.048Z,5.30
2019-03-11T00:47:28.450Z,5.30
2019-03-11T00:49:56.870Z,5.30
2019-03-11T00:52:25.269Z,5.30
2019-03-11T00:54:53.999Z,5.30
2019-03-11T00:57:22.350Z,5.30
2019-03-11T00:59:50.657Z,5.30
2019-03-11T01:02:18.983Z,5.30
2019-03-11T01:04:47.268Z,5.30
2019-03-11T01:07:15.619Z,5.30
2019-03-11T01:09:43.934Z,5.20
2019-03-11T01:12:12.241Z,5.20
2019-03-11T01:14:40.644Z,5.10
2019-03-11T01:17:08.955Z,5.10
2019-03-11T01:19:37.719Z,5.10
2019-03-11T01:22:06.020Z,5.00
2019-03-11T01:24:34.446Z,5.00
2019-03-11T01:27:02.730Z,5.00
2019-03-11T01:29:31.015Z,5.00
2019-03-11T01:31:59.304Z,5.00
2019-03-11T01:34:27.592Z,4.90
2019-03-11T01:36:55.959Z,4.90
2019-03-11T01:39:24.383Z,4.90
2019-03-11T01:41:52.847Z,4.90
2019-03-11T01:44:21.223Z,4.80
2019-03-11T01:46:49.606Z,4.80
2019-03-11T01:49:17.902Z,4.80
2019-03-11T01:51:46.181Z,4.80
2019-03-11T01:54:14.749Z,4.80
2019-03-11T01:56:43.075Z,4.80
2019-03-11T01:59:11.408Z,4.80
2019-03-11T02:01:39.787Z,4.80
2019-03-11T02:04:08.207Z,4.90
2019-03-11T02:06:36.483Z,4.90
2019-03-11T02:09:06.477Z,4.90
2019-03-11T02:11:34.753Z,4.90
2019-03-11T02:14:03.069Z,4.90
2019-03-11T02:16:31.344Z,4.90
2019-03-11T02:18:59.625Z,4.90
2019-03-11T02:21:28.107Z,4.80
2019-03-11T02:23:56.477Z,4.80
2019-03-11T02:26:24.799Z,4.80
2019-03-11T02:28:53.251Z,4.90
2019-03-11T02:31:21.989Z,4.90
2019-03-11T02:33:50.593Z,4.90
2019-03-11T02:36:18.945Z,4.90
2019-03-11T02:38:50.130Z,4.90
2019-03-11T02:41:18.433Z,4.90
2019-03-11T02:43:46.783Z,4.90
2019-03-11T02:46:15.149Z,5.00
2019-03-11T02:48:44.761Z,5.00
2019-03-11T02:51:13.207Z,5.00
2019-03-11T02:53:41.589Z,5.00
2019-03-11T02:56:09.959Z,5.10
2019-03-11T02:58:38.329Z,5.10
2019-03-11T03:01:17.326Z,5.10
2019-03-11T03:03:59.045Z,5.10
2019-03-11T03:06:27.416Z,5.10
2019-03-11T03:08:55.793Z,5.10
2019-03-11T03:11:24.244Z,5.10
2019-03-11T03:13:52.777Z,5.10
2019-03-11T03:16:21.145Z,5.20
2019-03-11T03:18:49.450Z,5.20
2019-03-11T03:21:17.856Z,5.20
2019-03-11T03:23:46.171Z,5.20
2019-03-11T03:26:14.610Z,5.20
2019-03-11T03:28:42.961Z,5.20
2019-03-11T03:31:11.271Z,5.20
2019-03-11T03:33:39.659Z,5.20
2019-03-11T03:36:08.059Z,5.20
2019-03-11T03:38:36.378Z,5.20
2019-03-11T03:41:05.419Z,5.10
2019-03-11T03:43:34.162Z,5.10
2019-03-11T03:46:17.347Z,5.10
2019-03-11T03:48:32.864Z,5.00
2019-03-11T03:51:01.482Z,5.00
2019-03-11T03:53:29.766Z,5.00
2019-03-11T03:55:59.718Z,4.90
2019-03-11T03:58:28.006Z,4.90
2019-03-11T04:00:56.356Z,4.90
2019-03-11T04:03:24.663Z,4.90
2019-03-11T04:05:53.013Z,4.90
2019-03-11T04:08:21.384Z,4.90
2019-03-11T04:10:51.413Z,4.90
2019-03-11T04:13:19.768Z,5.00
2019-03-11T04:15:48.528Z,5.00
2019-03-11T04:18:16.901Z,5.00
2019-03-11T04:20:45.259Z,4.90
2019-03-11T04:23:13.594Z,4.90
2019-03-11T04:25:42.258Z,4.90
2019-03-11T04:28:10.616Z,4.90
2019-03-11T04:30:39.000Z,4.90
2019-03-11T04:33:07.292Z,4.90
2019-03-11T04:35:35.664Z,4.80
2019-03-11T04:38:05.106Z,4.80
2019-03-11T04:40:33.398Z,4.80
2019-03-11T04:43:02.061Z,4.80
2019-03-11T04:45:30.422Z,4.80
2019-03-11T04:47:58.931Z,4.80
2019-03-11T04:50:27.220Z,4.80
2019-03-11T04:52:55.578Z,4.80
2019-03-11T04:55:23.887Z,4.70
2019-03-11T04:57:56.082Z,4.60
2019-03-11T05:00:31.836Z,4.60
2019-03-11T05:03:00.187Z,4.60
2019-03-11T05:05:28.483Z,4.50
2019-03-11T05:07:56.851Z,4.50
2019-03-11T05:10:25.222Z,4.50
2019-03-11T05:12:55.842Z,4.50
2019-03-11T05:15:24.415Z,4.50
2019-03-11T05:17:53.057Z,4.40
2019-03-11T05:20:21.356Z,4.50
2019-03-11T05:22:49.714Z,4.50
2019-03-11T05:25:18.088Z,4.50
2019-03-11T05:28:05.844Z,4.50
2019-03-11T05:30:34.208Z,4.50
2019-03-11T05:33:02.491Z,4.50
2019-03-11T05:35:30.807Z,4.40
2019-03-11T05:37:59.195Z,4.50
2019-03-11T05:40:27.555Z,4.50
2019-03-11T05:42:55.938Z,4.50
2019-03-11T05:45:24.212Z,4.50
2019-03-11T05:47:52.788Z,4.50
2019-03-11T05:50:21.081Z,4.40
2019-03-11T05:52:49.365Z,4.50
2019-03-11T05:55:17.754Z,4.50
2019-03-11T05:57:46.067Z,4.40
2019-03-11T06:00:19.259Z,4.40
2019-03-11T06:02:47.607Z,4.40
2019-03-11T06:05:16.543Z,4.40
2019-03-11T06:07:44.908Z,4.40
2019-03-11T06:10:14.730Z,4.50
2019-03-11T06:12:43.013Z,4.50
2019-03-11T06:15:13.442Z,4.50
2019-03-11T06:17:42.059Z,4.50
2019-03-11T06:20:33.038Z,4.50
2019-03-11T06:23:03.310Z,4.50
2019-03-11T06:25:31.634Z,4.50
2019-03-11T06:27:59.994Z,4.50
2019-03-11T06:30:28.907Z,4.60
2019-03-11T06:32:57.274Z,4.60
2019-03-11T06:35:25.631Z,4.70
2019-03-11T06:37:53.931Z,4.70
2019-03-11T06:40:22.743Z,4.70
2019-03-11T06:42:51.042Z,4.70
2019-03-11T06:45:19.414Z,4.70
2019-03-11T06:47:47.758Z,4.60
2019-03-11T06:50:16.502Z,4.60
2019-03-11T06:52:44.928Z,4.60
2019-03-11T06:55:13.317Z,4.60
2019-03-11T06:57:41.693Z,4.60
2019-03-11T07:00:18.050Z,4.60
2019-03-11T07:02:46.489Z,4.60
2019-03-11T07:05:20.664Z,4.60
2019-03-11T07:07:45.073Z,4.70
2019-03-11T07:10:17.293Z,4.70
2019-03-11T07:12:45.658Z,4.80
2019-03-11T07:15:15.259Z,4.80
2019-03-11T07:17:44.025Z,4.90
2019-03-11T07:20:17.633Z,4.90
2019-03-11T07:22:46.292Z,5.00
2019-03-11T07:25:14.657Z,5.10
2019-03-11T07:27:43.372Z,5.10
2019-03-11T07:30:15.024Z,5.20
2019-03-11T07:32:43.379Z,5.20
2019-03-11T07:35:11.933Z,5.30
2019-03-11T07:37:40.661Z,5.30
2019-03-11T07:40:10.795Z,5.30
2019-03-11T07:42:39.144Z,5.30
2019-03-11T07:45:09.700Z,5.30
2019-03-11T07:47:38.408Z,5.40
2019-03-11T07:50:08.826Z,5.30
2019-03-11T07:52:37.619Z,5.40
2019-03-11T07:55:10.783Z,5.40
2019-03-11T07:57:39.399Z,5.40
2019-03-11T08:00:14.457Z,5.40
2019-03-11T08:02:46.104Z,5.40
2019-03-11T08:05:14.183Z,5.40
2019-03-11T08:07:42.623Z,5.50
2019-03-11T08:10:22.027Z,5.50
2019-03-11T08:12:50.395Z,5.50
2019-03-11T08:15:18.715Z,5.50
2019-03-11T08:17:46.995Z,5.50
2019-03-11T08:20:16.436Z,5.50
2019-03-11T08:22:44.723Z,5.60
2019-03-11T08:25:17.753Z,5.60
2019-03-11T08:27:46.041Z,5.70
2019-03-11T08:30:22.291Z,5.70
2019-03-11T08:32:50.824Z,5.80
2019-03-11T08:35:19.287Z,5.80
2019-03-11T08:37:47.603Z,5.90
2019-03-11T08:40:20.719Z,5.90
2019-03-11T08:42:49.101Z,6.00
2019-03-11T08:45:18.734Z,6.00
2019-03-11T08:47:47.011Z,6.10
2019-03-11T08:50:16.343Z,6.10
2019-03-11T08:52:44.658Z,6.10
2019-03-11T08:55:13.447Z,6.20
2019-03-11T08:57:41.731Z,6.30
2019-03-11T09:00:22.288Z,6.50
2019-03-11T09:02:50.650Z,6.50
2019-03-11T09:05:19.003Z,6.60
2019-03-11T09:07:47.725Z,6.50
2019-03-11T09:10:17.267Z,6.50
2019-03-11T09:12:45.569Z,6.50
2019-03-11T09:15:21.384Z,6.50
2019-03-11T09:17:49.721Z,6.50
2019-03-11T09:20:18.713Z,6.50
2019-03-11T09:22:46.990Z,6.50
2019-03-11T09:25:17.899Z,6.60
2019-03-11T09:27:46.209Z,6.60
2019-03-11T09:30:19.275Z,6.60
2019-03-11T09:32:47.611Z,6.60
2019-03-11T09:35:16.162Z,6.70
2019-03-11T09:37:44.809Z,6.70
2019-03-11T09:40:21.456Z,6.80
2019-03-11T09:42:49.819Z,6.90
2019-03-11T09:45:23.929Z,6.90
2019-03-11T09:47:52.978Z,7.00
2019-03-11T09:50:26.292Z,7.10
2019-03-11T09:52:54.684Z,7.10
2019-03-11T09:55:27.929Z,7.00
2019-03-11T09:57:56.233Z,7.00
2019-03-11T10:00:30.007Z,7.00
2019-03-11T10:02:58.354Z,7.00
2019-03-11T10:05:29.231Z,7.00
2019-03-11T10:08:05.833Z,6.90
2019-03-11T10:10:31.538Z,6.90
2019-03-11T10:12:59.912Z,6.90
2019-03-11T10:15:32.502Z,7.00
2019-03-11T10:18:06.089Z,7.10
2019-03-11T10:20:34.195Z,7.20
2019-03-11T10:23:02.613Z,7.30
2019-03-11T10:25:30.909Z,7.40
2019-03-11T10:27:59.321Z,7.50
2019-03-11T10:30:27.664Z,7.60
2019-03-11T10:32:56.036Z,7.70
2019-03-11T10:35:31.833Z,7.80
2019-03-11T10:37:54.469Z,7.90
2019-03-11T10:40:28.057Z,7.90
2019-03-11T10:42:56.343Z,7.80
2019-03-11T10:45:31.287Z,7.90
2019-03-11T10:47:54.711Z,7.90
2019-03-11T10:50:23.003Z,8.00
2019-03-11T10:52:51.357Z,8.10
2019-03-11T10:55:22.318Z,8.10
2019-03-11T10:57:50.788Z,8.20
2019-03-11T11:00:33.895Z,8.20
2019-03-11T11:03:02.358Z,8.20
2019-03-11T11:05:33.710Z,8.10
2019-03-11T11:08:05.795Z,8.10
2019-03-11T11:10:34.431Z,8.10
2019-03-11T11:13:07.109Z,8.20
2019-03-11T11:15:38.659Z,8.10
2019-03-11T11:18:09.564Z,8.10
2019-03-11T11:20:37.950Z,8.10
2019-03-11T11:23:06.231Z,8.00
2019-03-11T11:25:34.588Z,7.90
2019-03-11T11:28:03.803Z,7.80
2019-03-11T11:30:32.445Z,7.80
2019-03-11T11:33:00.847Z,7.90
2019-03-11T11:35:29.193Z,8.00
2019-03-11T11:37:58.721Z,8.00
2019-03-11T11:40:31.170Z,7.90
2019-03-11T11:42:59.523Z,7.70
2019-03-11T11:45:29.550Z,7.60
2019-03-11T11:47:57.817Z,7.60
2019-03-11T11:50:26.615Z,7.60
2019-03-11T11:52:54.956Z,7.50
2019-03-11T11:55:23.881Z,7.50
2019-03-11T11:57:52.246Z,7.40
2019-03-11T12:00:34.004Z,7.40
2019-03-11T12:03:02.310Z,7.30
2019-03-11T12:05:30.660Z,7.30
2019-03-11T12:07:59.414Z,7.40
2019-03-11T12:10:31.757Z,7.50
2019-03-11T12:13:00.150Z,7.60
2019-03-11T12:15:28.506Z,7.60
2019-03-11T12:17:57.222Z,7.70
2019-03-11T12:20:27.362Z,7.80
2019-03-11T12:22:55.731Z,7.90
2019-03-11T12:25:24.017Z,7.90
2019-03-11T12:27:54.060Z,8.00
2019-03-11T12:30:25.204Z,8.20
2019-03-11T12:32:53.843Z,8.30
2019-03-11T12:35:22.141Z,8.30
2019-03-11T12:37:50.657Z,8.30
2019-03-11T12:40:19.878Z,8.30
2019-03-11T12:42:48.251Z,8.40
2019-03-11T12:45:18.196Z,8.60
2019-03-11T12:47:47.528Z,8.60
2019-03-11T12:50:18.665Z,8.70
2019-03-11T12:52:47.017Z,8.70
2019-03-11T12:55:15.402Z,8.70
2019-03-11T12:57:43.768Z,8.70
2019-03-11T13:00:14.671Z,8.70
2019-03-11T13:02:44.703Z,8.70
2019-03-11T13:05:13.045Z,8.70
2019-03-11T13:07:43.416Z,8.70
2019-03-11T13:10:22.820Z,8.70
2019-03-11T13:12:54.731Z,8.70
2019-03-11T13:15:29.239Z,8.80
2019-03-11T13:18:18.738Z,8.80
2019-03-11T13:20:51.182Z,8.70
2019-03-11T13:23:26.578Z,8.70
2019-03-11T13:25:56.608Z,8.70
2019-03-11T13:28:27.213Z,8.70
2019-03-11T13:30:57.820Z,8.70
2019-03-11T13:33:30.477Z,8.70
2019-03-11T13:36:00.927Z,8.80
2019-03-11T13:38:39.922Z,8.80
2019-03-11T13:41:08.592Z,8.80
2019-03-11T13:43:37.337Z,8.80
2019-03-11T13:46:05.648Z,8.90
2019-03-11T13:48:35.668Z,8.90
2019-03-11T13:51:04.562Z,8.90
2019-03-11T13:53:32.936Z,8.80
2019-03-11T13:56:01.388Z,8.80
2019-03-11T13:58:29.752Z,8.80
2019-03-11T14:00:58.036Z,8.80
2019-03-11T14:03:26.662Z,8.80
2019-03-11T14:05:54.934Z,8.70
2019-03-11T14:08:23.561Z,8.60
2019-03-11T14:10:51.893Z,8.70
2019-03-11T14:13:20.253Z,8.80
2019-03-11T14:15:48.536Z,8.90
2019-03-11T14:18:16.864Z,8.90
2019-03-11T14:20:45.734Z,8.90
2019-03-11T14:23:15.655Z,9.00
2019-03-11T14:25:43.994Z,9.00
2019-03-11T14:28:14.187Z,9.00
2019-03-11T14:30:42.548Z,9.10
2019-03-11T14:33:10.919Z,9.10
2019-03-11T14:35:39.224Z,9.20
2019-03-11T14:38:07.574Z,9.20
2019-03-11T14:40:36.021Z,9.20
2019-03-11T14:43:04.716Z,9.30
2019-03-11T14:45:33.051Z,9.20
2019-03-11T14:48:01.419Z,9.10
2019-03-11T14:50:29.963Z,9.00
2019-03-11T14:52:58.344Z,9.00
2019-03-11T14:55:26.618Z,9.00
2019-03-11T14:57:54.897Z,9.00
2019-03-11T15:00:23.362Z,9.00
2019-03-11T15:02:57.767Z,9.10
2019-03-11T15:05:26.077Z,9.10
2019-03-11T15:07:54.644Z,9.10
2019-03-11T15:10:23.044Z,9.10
2019-03-11T15:12:51.366Z,9.00
2019-03-11T15:15:20.867Z,9.00
2019-03-11T15:17:49.217Z,8.90
2019-03-11T15:20:17.604Z,8.90
2019-03-11T15:22:45.909Z,9.00
2019-03-11T15:25:18.042Z,9.00
2019-03-11T15:27:46.413Z,9.00
2019-03-11T15:30:23.215Z,8.90
2019-03-11T15:32:51.590Z,8.80
2019-03-11T15:35:20.604Z,8.80
2019-03-11T15:37:49.018Z,8.70
2019-03-11T15:40:18.498Z,8.70
2019-03-11T15:42:46.867Z,8.70
2019-03-11T15:45:16.474Z,8.70
2019-03-11T15:47:44.855Z,8.60
2019-03-11T15:50:22.480Z,8.60
2019-03-11T15:52:51.238Z,8.60
2019-03-11T15:55:21.252Z,8.60
2019-03-11T15:57:49.644Z,8.60
2019-03-11T16:00:23.580Z,8.60
2019-03-11T16:02:51.934Z,8.60
2019-03-11T16:05:22.744Z,8.60
2019-03-11T16:07:54.127Z,8.60
2019-03-11T16:10:22.584Z,8.60
2019-03-11T16:13:09.960Z,8.60
2019-03-11T16:15:41.683Z,8.60
2019-03-11T16:18:10.048Z,8.60
2019-03-11T16:20:38.353Z,8.60
2019-03-11T16:23:08.083Z,8.60
2019-03-11T16:25:37.673Z,8.60
2019-03-11T16:28:06.026Z,8.60
2019-03-11T16:30:34.752Z,8.60
2019-03-11T16:33:03.149Z,8.50
2019-03-11T16:35:31.745Z,8.50
2019-03-11T16:38:00.750Z,8.50
2019-03-11T16:40:29.409Z,8.50
2019-03-11T16:42:58.075Z,8.50
2019-03-11T16:45:26.953Z,8.40
2019-03-11T16:47:59.071Z,8.40
2019-03-11T16:50:27.710Z,8.40
2019-03-11T16:53:15.576Z,8.40
2019-03-11T16:55:49.606Z,8.40
2019-03-11T16:58:17.915Z,8.40
2019-03-11T17:00:48.198Z,8.30
2019-03-11T17:03:16.565Z,8.30
2019-03-11T17:05:44.918Z,8.30
2019-03-11T17:08:13.366Z,8.30
2019-03-11T17:10:41.822Z,8.30
2019-03-11T17:13:10.165Z,8.30
2019-03-11T17:15:38.587Z,8.30
2019-03-11T17:18:06.960Z,8.30
2019-03-11T17:20:35.346Z,8.20
2019-03-11T17:23:04.547Z,8.30
2019-03-11T17:25:32.980Z,8.20
2019-03-11T17:28:01.278Z,8.20
2019-03-11T17:30:29.656Z,8.20
2019-03-11T17:33:02.198Z,8.20
2019-03-11T17:35:30.575Z,8.20
2019-03-11T17:37:59.377Z,8.10
2019-03-11T17:40:32.522Z,8.00
2019-03-11T17:43:01.226Z,8.00
2019-03-11T17:45:29.732Z,8.00
2019-03-11T17:47:58.081Z,7.90
2019-03-11T17:50:26.440Z,7.90
2019-03-11T17:52:54.789Z,7.90
2019-03-11T17:55:23.096Z,7.90
2019-03-11T17:57:51.459Z,7.90
2019-03-11T18:00:36.805Z,7.90
2019-03-11T18:03:05.542Z,7.90
2019-03-11T18:05:33.853Z,7.90
2019-03-11T18:08:02.187Z,7.80
2019-03-11T18:10:30.476Z,7.80
2019-03-11T18:12:58.840Z,7.80
2019-03-11T18:15:27.255Z,7.70
2019-03-11T18:17:55.565Z,7.70
2019-03-11T18:20:24.025Z,7.70
2019-03-11T18:22:58.961Z,7.60
2019-03-11T18:25:27.830Z,7.60
2019-03-11T18:27:59.426Z,7.60
2019-03-11T18:30:32.481Z,7.60
2019-03-11T18:33:01.191Z,7.50
2019-03-11T18:35:29.554Z,7.50
2019-03-11T18:38:04.058Z,7.50
2019-03-11T18:40:28.375Z,7.50
2019-03-11T18:42:56.739Z,7.50
2019-03-11T18:45:25.142Z,7.40
2019-03-11T18:47:53.520Z,7.40
2019-03-11T18:50:28.447Z,7.40
2019-03-11T18:52:56.827Z,7.40
2019-03-11T18:55:25.675Z,7.40
2019-03-11T18:57:53.981Z,7.40
2019-03-11T19:00:23.398Z,7.30
2019-03-11T19:02:51.762Z,7.30
2019-03-11T19:05:25.646Z,7.30
2019-03-11T19:08:00.849Z,7.30
2019-03-11T19:10:29.209Z,7.20
2019-03-11T19:12:57.587Z,7.20
2019-03-11T19:15:26.316Z,7.20
2019-03-11T19:17:55.099Z,7.20
2019-03-11T19:20:24.564Z,7.10
2019-03-11T19:22:53.100Z,7.10
2019-03-11T19:25:21.457Z,7.00
2019-03-11T19:27:49.864Z,7.00
2019-03-11T19:30:22.706Z,7.00
2019-03-11T19:32:52.693Z,6.90
2019-03-11T19:35:21.410Z,6.90
2019-03-11T19:37:49.807Z,6.80
2019-03-11T19:40:23.184Z,6.80
2019-03-11T19:42:51.492Z,6.80
2019-03-11T19:45:24.532Z,6.80
2019-03-11T19:47:52.875Z,6.80
2019-03-11T19:50:21.268Z,6.70
2019-03-11T19:52:58.577Z,6.70
2019-03-11T19:55:19.635Z,6.70
2019-03-11T19:57:48.038Z,6.70
2019-03-11T20:00:23.845Z,6.60
2019-03-11T20:02:52.174Z,6.50
2019-03-11T20:05:29.973Z,6.50
2019-03-11T20:08:03.758Z,6.40
2019-03-11T20:10:32.171Z,6.40
2019-03-11T20:13:00.508Z,6.30
2019-03-11T20:15:28.833Z,6.30
2019-03-11T20:17:57.233Z,6.20
2019-03-11T20:20:25.626Z,6.20
2019-03-11T20:22:53.995Z,6.10
2019-03-11T20:25:27.862Z,6.10
2019-03-11T20:27:56.435Z,6.00
2019-03-11T20:30:25.259Z,6.00
2019-03-11T20:32:53.678Z,6.00
2019-03-11T20:35:22.113Z,5.90
2019-03-11T20:37:50.509Z,5.90
2019-03-11T20:40:19.105Z,5.80
2019-03-11T20:42:47.551Z,5.80
2019-03-11T20:45:18.027Z,5.70
2019-03-11T20:47:46.378Z,5.70
2019-03-11T20:50:16.284Z,5.70
2019-03-11T20:52:44.739Z,5.60
2019-03-11T20:55:20.615Z,5.60
2019-03-11T20:57:48.976Z,5.50
2019-03-11T21:00:24.536Z,5.50
2019-03-11T21:02:52.976Z,5.50
2019-03-11T21:05:41.404Z,5.40
2019-03-11T21:08:09.794Z,5.40
2019-03-11T21:10:39.781Z,5.40
2019-03-11T21:13:08.858Z,5.30
2019-03-11T21:15:37.442Z,5.30
2019-03-11T21:18:05.769Z,5.30
2019-03-11T21:20:40.270Z,5.30
2019-03-11T21:23:09.150Z,5.30
2019-03-11T21:25:37.698Z,5.20
2019-03-11T21:28:06.472Z,5.30
2019-03-11T21:30:34.848Z,5.20
2019-03-11T21:33:03.187Z,5.20
2019-03-11T21:35:31.630Z,5.20
2019-03-11T21:38:00.007Z,5.20
2019-03-11T21:40:28.733Z,5.20
2019-03-11T21:42:58.788Z,5.10
2019-03-11T21:45:33.920Z,5.10
2019-03-11T21:47:57.338Z,5.30
2019-03-11T21:50:28.453Z,5.20
2019-03-11T21:52:57.110Z,5.20
2019-03-11T21:55:25.657Z,5.10
2019-03-11T21:57:54.027Z,5.10
2019-03-11T22:00:34.724Z,5.10
2019-03-11T22:02:55.830Z,5.10
2019-03-11T22:05:24.160Z,5.10
2019-03-11T22:07:52.515Z,5.10
2019-03-11T22:10:21.447Z,5.10
2019-03-11T22:12:50.012Z,5.00
2019-03-11T22:15:23.234Z,5.00
2019-03-11T22:17:51.598Z,5.00
2019-03-11T22:20:19.996Z,5.00
2019-03-11T22:22:48.293Z,5.00
2019-03-11T22:25:23.001Z,5.00
2019-03-11T22:27:51.387Z,4.90
2019-03-11T22:30:28.902Z,4.90
2019-03-11T22:33:00.454Z,4.80
2019-03-11T22:35:37.717Z,4.80
2019-03-11T22:38:15.423Z,4.80
2019-03-11T22:40:44.673Z,4.70
2019-03-11T22:43:14.597Z,4.70
2019-03-11T22:45:42.966Z,4.60
2019-03-11T22:48:11.255Z,4.60
2019-03-11T22:50:39.609Z,4.60
2019-03-11T22:53:07.934Z,4.60
2019-03-11T22:55:38.901Z,4.50
2019-03-11T22:58:06.233Z,4.50
2019-03-11T23:00:42.676Z,4.50
2019-03-11T23:03:11.037Z,4.50
2019-03-11T23:05:39.422Z,4.40
2019-03-11T23:08:07.710Z,4.40
2019-03-11T23:10:35.989Z,4.40
2019-03-11T23:13:04.654Z,4.40
2019-03-11T23:15:33.026Z,4.40
2019-03-11T23:18:01.310Z,4.40
2019-03-11T23:20:29.653Z,4.40
2019-03-11T23:22:57.968Z,4.40
2019-03-11T23:25:26.309Z,4.40
2019-03-11T23:27:54.609Z,4.40
2019-03-11T23:30:22.987Z,4.40
2019-03-11T23:32:51.272Z,4.30
2019-03-11T23:35:19.577Z,4.30
2019-03-11T23:37:47.873Z,4.30
2019-03-11T23:40:16.232Z,4.30
2019-03-11T23:42:44.533Z,4.30
2019-03-11T23:45:12.843Z,4.30
2019-03-11T23:47:41.352Z,4.30
2019-03-11T23:50:11.646Z,4.20
2019-03-11T23:52:39.991Z,4.20
2019-03-11T23:55:12.100Z,4.20
2019-03-11T23:57:40.460Z,4.20
